sensor_id;sensor_type;location;lat;lon;timestamp;pressure;altitude;pressure_sealevel;temperature
49557;BMP280;35462;45.048;7.666;2024-01-06T00:02:16;97539.66;;;7.26
49557;BMP280;35462;45.048;7.666;2024-01-06T00:17:36;97540.41;;;7.26
49557;BMP280;35462;45.048;7.666;2024-01-06T00:32:55;97534.75;;;7.28
49557;BMP280;35462;45.048;7.666;2024-01-06T00:48:15;97523.72;;;7.13
49557;BMP280;35462;45.048;7.666;2024-01-06T01:03:34;97509.63;;;7.04
49557;BMP280;35462;45.048;7.666;2024-01-06T01:18:54;97509.06;;;7.12
49557;BMP280;35462;45.048;7.666;2024-01-06T01:34:13;97510.72;;;7.06
49557;BMP280;35462;45.048;7.666;2024-01-06T01:49:33;97483.09;;;6.95
49557;BMP280;35462;45.048;7.666;2024-01-06T02:04:52;97481.88;;;6.80
49557;BMP280;35462;45.048;7.666;2024-01-06T02:20:12;97464.06;;;6.87
49557;BMP280;35462;45.048;7.666;2024-01-06T02:35:33;97457.81;;;7.01
49557;BMP280;35462;45.048;7.666;2024-01-06T02:50:52;97452.59;;;6.97
49557;BMP280;35462;45.048;7.666;2024-01-06T03:06:12;97443.16;;;7.19
49557;BMP280;35462;45.048;7.666;2024-01-06T03:21:31;97436.66;;;7.24
49557;BMP280;35462;45.048;7.666;2024-01-06T03:36:51;97424.84;;;7.32
49557;BMP280;35462;45.048;7.666;2024-01-06T03:52:10;97422.72;;;7.27
49557;BMP280;35462;45.048;7.666;2024-01-06T04:07:30;97403.19;;;7.24
49557;BMP280;35462;45.048;7.666;2024-01-06T04:22:49;97384.31;;;7.10
49557;BMP280;35462;45.048;7.666;2024-01-06T04:38:09;97362.53;;;6.93
49557;BMP280;35462;45.048;7.666;2024-01-06T04:53:28;97373.03;;;6.93
49557;BMP280;35462;45.048;7.666;2024-01-06T05:08:48;97366.41;;;6.85
49557;BMP280;35462;45.048;7.666;2024-01-06T05:24:07;97351.56;;;6.75
49557;BMP280;35462;45.048;7.666;2024-01-06T05:39:27;97337.16;;;6.64
49557;BMP280;35462;45.048;7.666;2024-01-06T05:54:46;97335.91;;;6.52
49557;BMP280;35462;45.048;7.666;2024-01-06T06:10:10;97337.19;;;6.44
49557;BMP280;35462;45.048;7.666;2024-01-06T06:25:30;97347.00;;;6.40
49557;BMP280;35462;45.048;7.666;2024-01-06T06:40:49;97363.16;;;6.39
49557;BMP280;35462;45.048;7.666;2024-01-06T06:56:09;97355.00;;;6.33
49557;BMP280;35462;45.048;7.666;2024-01-06T07:11:29;97344.16;;;6.31
49557;BMP280;35462;45.048;7.666;2024-01-06T07:26:49;97347.41;;;6.39
49557;BMP280;35462;45.048;7.666;2024-01-06T07:42:08;97353.25;;;6.46
49557;BMP280;35462;45.048;7.666;2024-01-06T07:57:28;97362.09;;;6.75
49557;BMP280;35462;45.048;7.666;2024-01-06T08:12:47;97347.22;;;7.04
49557;BMP280;35462;45.048;7.666;2024-01-06T08:28:07;97343.50;;;7.37
49557;BMP280;35462;45.048;7.666;2024-01-06T08:43:27;97349.09;;;7.71
49557;BMP280;35462;45.048;7.666;2024-01-06T08:58:46;97344.41;;;7.94
49557;BMP280;35462;45.048;7.666;2024-01-06T09:14:05;97340.81;;;8.17
49557;BMP280;35462;45.048;7.666;2024-01-06T09:29:25;97339.75;;;8.43
49557;BMP280;35462;45.048;7.666;2024-01-06T09:44:44;97323.47;;;8.72
49557;BMP280;35462;45.048;7.666;2024-01-06T10:00:05;97313.88;;;8.91
49557;BMP280;35462;45.048;7.666;2024-01-06T10:15:31;97303.50;;;8.96
49557;BMP280;35462;45.048;7.666;2024-01-06T10:30:55;97289.44;;;9.24
49557;BMP280;35462;45.048;7.666;2024-01-06T10:46:14;97283.41;;;9.24
49557;BMP280;35462;45.048;7.666;2024-01-06T11:01:35;97275.94;;;9.22
49557;BMP280;35462;45.048;7.666;2024-01-06T11:16:55;97259.00;;;9.32
49557;BMP280;35462;45.048;7.666;2024-01-06T11:32:28;97230.97;;;9.81
49557;BMP280;35462;45.048;7.666;2024-01-06T11:47:48;97225.38;;;10.31
49557;BMP280;35462;45.048;7.666;2024-01-06T12:03:08;97206.94;;;10.49
49557;BMP280;35462;45.048;7.666;2024-01-06T12:18:28;97193.78;;;10.75
49557;BMP280;35462;45.048;7.666;2024-01-06T12:33:47;97160.56;;;10.83
49557;BMP280;35462;45.048;7.666;2024-01-06T12:49:07;97146.47;;;10.95
49557;BMP280;35462;45.048;7.666;2024-01-06T13:04:26;97125.88;;;10.99
49557;BMP280;35462;45.048;7.666;2024-01-06T13:19:46;97109.38;;;11.13
49557;BMP280;35462;45.048;7.666;2024-01-06T13:35:06;97107.59;;;11.19
49557;BMP280;35462;45.048;7.666;2024-01-06T13:50:25;97116.72;;;11.27
49557;BMP280;35462;45.048;7.666;2024-01-06T14:05:45;97113.63;;;11.38
49557;BMP280;35462;45.048;7.666;2024-01-06T14:21:05;97111.69;;;11.47
49557;BMP280;35462;45.048;7.666;2024-01-06T14:36:24;97105.50;;;11.50
49557;BMP280;35462;45.048;7.666;2024-01-06T14:51:43;97115.69;;;11.43
49557;BMP280;35462;45.048;7.666;2024-01-06T15:07:04;97129.38;;;11.32
49557;BMP280;35462;45.048;7.666;2024-01-06T15:22:24;97122.03;;;11.18
49557;BMP280;35462;45.048;7.666;2024-01-06T15:37:44;97128.22;;;11.06
49557;BMP280;35462;45.048;7.666;2024-01-06T15:53:03;97124.56;;;10.95
49557;BMP280;35462;45.048;7.666;2024-01-06T16:08:23;97115.28;;;10.81
49557;BMP280;35462;45.048;7.666;2024-01-06T16:23:43;97136.72;;;10.74
49557;BMP280;35462;45.048;7.666;2024-01-06T16:39:03;97148.22;;;10.72
49557;BMP280;35462;45.048;7.666;2024-01-06T16:54:22;97142.88;;;10.63
49557;BMP280;35462;45.048;7.666;2024-01-06T17:09:42;97138.31;;;10.54
49557;BMP280;35462;45.048;7.666;2024-01-06T17:25:04;97159.88;;;10.44
49557;BMP280;35462;45.048;7.666;2024-01-06T17:40:24;97170.56;;;10.31
49557;BMP280;35462;45.048;7.666;2024-01-06T17:55:43;97176.56;;;10.23
49557;BMP280;35462;45.048;7.666;2024-01-06T18:11:03;97175.47;;;10.11
49557;BMP280;35462;45.048;7.666;2024-01-06T18:26:22;97183.97;;;10.06
49557;BMP280;35462;45.048;7.666;2024-01-06T18:41:42;97187.06;;;10.05
49557;BMP280;35462;45.048;7.666;2024-01-06T18:57:01;97180.00;;;10.11
49557;BMP280;35462;45.048;7.666;2024-01-06T19:12:21;97178.44;;;10.13
49557;BMP280;35462;45.048;7.666;2024-01-06T19:27:40;97178.72;;;10.15
49557;BMP280;35462;45.048;7.666;2024-01-06T19:43:00;97172.13;;;10.20
49557;BMP280;35462;45.048;7.666;2024-01-06T19:58:21;97163.91;;;10.18
49557;BMP280;35462;45.048;7.666;2024-01-06T20:13:40;97168.44;;;10.17
49557;BMP280;35462;45.048;7.666;2024-01-06T20:29:00;97157.13;;;10.17
49557;BMP280;35462;45.048;7.666;2024-01-06T20:44:20;97148.56;;;10.04
49557;BMP280;35462;45.048;7.666;2024-01-06T20:59:39;97138.25;;;9.97
49557;BMP280;35462;45.048;7.666;2024-01-06T21:14:59;97140.00;;;9.91
49557;BMP280;35462;45.048;7.666;2024-01-06T21:30:19;97140.84;;;9.88
49557;BMP280;35462;45.048;7.666;2024-01-06T21:45:38;97141.44;;;9.92
49557;BMP280;35462;45.048;7.666;2024-01-06T22:00:57;97135.88;;;9.90
49557;BMP280;35462;45.048;7.666;2024-01-06T22:16:17;97133.81;;;9.94
49557;BMP280;35462;45.048;7.666;2024-01-06T22:31:41;97139.09;;;9.94
49557;BMP280;35462;45.048;7.666;2024-01-06T22:47:01;97124.72;;;9.95
49557;BMP280;35462;45.048;7.666;2024-01-06T23:02:21;97133.22;;;9.90
49557;BMP280;35462;45.048;7.666;2024-01-06T23:17:40;97133.97;;;9.90
49557;BMP280;35462;45.048;7.666;2024-01-06T23:33:00;97135.00;;;9.93
49557;BMP280;35462;45.048;7.666;2024-01-06T23:48:19;97134.81;;;9.87
